createdAt,value
2018-05-16T00:00:59.581Z,63.20
2018-05-16T00:03:27.047Z,63.60
2018-05-16T00:05:54.505Z,63.60
2018-05-16T00:08:21.965Z,63.60
2018-05-16T00:10:49.422Z,63.40
2018-05-16T00:13:16.881Z,63.50
2018-05-16T00:15:44.318Z,63.50
2018-05-16T00:18:11.785Z,63.80
2018-05-16T00:20:39.249Z,63.80
2018-05-16T00:23:06.689Z,63.70
2018-05-16T00:25:34.168Z,63.70
2018-05-16T00:28:01.638Z,63.70
2018-05-16T00:30:29.069Z,63.70
2018-05-16T00:32:56.522Z,63.80
2018-05-16T00:35:23.985Z,63.90
2018-05-16T00:37:51.412Z,64.00
2018-05-16T00:40:18.873Z,64.20
2018-05-16T00:42:46.329Z,64.20
2018-05-16T00:45:13.769Z,64.20
2018-05-16T00:47:41.985Z,64.90
2018-05-16T00:50:09.425Z,64.60
2018-05-16T00:52:36.887Z,64.50
2018-05-16T00:55:04.337Z,64.60
2018-05-16T00:57:31.803Z,64.70
2018-05-16T00:59:59.229Z,64.70
2018-05-16T01:02:26.685Z,64.80
2018-05-16T01:04:54.123Z,64.90
2018-05-16T01:07:21.586Z,65.00
2018-05-16T01:09:49.025Z,65.40
2018-05-16T01:12:16.461Z,65.40
2018-05-16T01:14:43.914Z,65.50
2018-05-16T01:17:11.373Z,65.60
2018-05-16T01:19:38.809Z,66.00
2018-05-16T01:22:07.018Z,66.40
2018-05-16T01:24:34.557Z,66.50
2018-05-16T01:27:02.009Z,66.50
2018-05-16T01:29:30.213Z,66.90
2018-05-16T01:31:57.668Z,66.90
2018-05-16T01:34:25.125Z,67.00
2018-05-16T01:36:52.568Z,67.30
2018-05-16T01:39:20.030Z,67.50
2018-05-16T01:41:47.489Z,67.70
2018-05-16T01:44:16.877Z,67.70
2018-05-16T01:46:45.087Z,67.90
2018-05-16T01:49:19.157Z,67.90
2018-05-16T01:51:47.353Z,68.50
2018-05-16T01:54:14.824Z,68.40
2018-05-16T01:56:42.256Z,68.50
2018-05-16T01:59:09.692Z,68.50
2018-05-16T02:01:37.149Z,68.30
2018-05-16T02:04:04.578Z,68.50
2018-05-16T02:06:32.039Z,68.40
2018-05-16T02:08:59.481Z,69.20
2018-05-16T02:11:26.945Z,68.50
2018-05-16T02:13:54.410Z,68.60
2018-05-16T02:16:21.854Z,68.80
2018-05-16T02:18:49.337Z,69.20
2018-05-16T02:21:16.837Z,69.20
2018-05-16T02:23:45.081Z,69.60
2018-05-16T02:26:12.544Z,69.60
2018-05-16T02:28:40.030Z,69.80
2018-05-16T02:31:08.260Z,70.30
2018-05-16T02:33:35.709Z,70.30
2018-05-16T02:36:03.195Z,70.40
2018-05-16T02:38:30.661Z,70.80
2018-05-16T02:40:58.108Z,70.80
2018-05-16T02:43:25.593Z,70.90
2018-05-16T02:45:53.822Z,71.20
2018-05-16T02:48:21.305Z,71.20
2018-05-16T02:50:48.793Z,71.30
2018-05-16T02:53:17.041Z,71.20
2018-05-16T02:55:44.517Z,71.10
2018-05-16T02:58:11.973Z,71.40
2018-05-16T03:00:39.445Z,71.50
2018-05-16T03:03:06.905Z,71.80
2018-05-16T03:05:34.383Z,71.90
2018-05-16T03:08:01.844Z,72.30
2018-05-16T03:10:30.645Z,72.50
2018-05-16T03:12:58.103Z,72.30
2018-05-16T03:15:25.561Z,72.90
2018-05-16T03:17:53.056Z,73.50
2018-05-16T03:20:20.513Z,74.10
2018-05-16T03:22:48.004Z,74.10
2018-05-16T03:25:15.464Z,74.10
2018-05-16T03:27:42.993Z,74.60
2018-05-16T03:30:10.449Z,74.60
2018-05-16T03:32:37.909Z,74.80
2018-05-16T03:35:06.188Z,75.40
2018-05-16T03:37:33.671Z,75.40
2018-05-16T03:40:01.972Z,75.70
2018-05-16T03:42:29.429Z,75.70
2018-05-16T03:44:57.029Z,76.00
2018-05-16T03:47:24.489Z,76.20
2018-05-16T03:49:51.966Z,77.30
2018-05-16T03:52:19.445Z,76.50
2018-05-16T03:54:47.697Z,77.10
2018-05-16T04:00:27.224Z,77.50
2018-05-16T04:03:06.611Z,77.00
2018-05-16T04:05:34.083Z,77.30
2018-05-16T04:08:02.304Z,77.40
2018-05-16T04:10:29.776Z,77.40
2018-05-16T04:12:57.280Z,78.00
2018-05-16T04:15:25.509Z,78.10
2018-05-16T04:17:52.998Z,78.10
2018-05-16T04:20:20.461Z,77.90
2018-05-16T04:22:48.723Z,77.70
2018-05-16T04:25:16.180Z,77.60
2018-05-16T04:27:43.640Z,77.90
2018-05-16T04:30:11.342Z,77.80
2018-05-16T04:32:38.881Z,77.60
2018-05-16T04:35:06.272Z,77.50
2018-05-16T04:37:33.740Z,77.50
2018-05-16T04:40:01.245Z,77.60
2018-05-16T04:42:29.488Z,77.60
2018-05-16T04:44:56.949Z,77.60
2018-05-16T04:47:24.464Z,77.70
2018-05-16T04:49:51.936Z,78.30
2018-05-16T04:52:19.392Z,77.90
2018-05-16T04:54:46.877Z,78.20
2018-05-16T04:57:14.368Z,78.30
2018-05-16T04:59:42.608Z,78.20
2018-05-16T05:02:10.105Z,78.20
2018-05-16T05:04:37.580Z,78.40
2018-05-16T05:07:05.065Z,78.40
2018-05-16T05:09:32.525Z,78.10
2018-05-16T05:12:00.009Z,78.40
2018-05-16T05:14:27.493Z,78.60
2018-05-16T05:16:54.972Z,78.80
2018-05-16T05:19:22.457Z,78.90
2018-05-16T05:21:49.929Z,78.80
2018-05-16T05:24:17.385Z,78.80
2018-05-16T05:26:44.880Z,79.00
2018-05-16T05:29:12.412Z,79.30
2018-05-16T05:31:39.865Z,79.20
2018-05-16T05:34:07.327Z,79.10
2018-05-16T05:39:08.713Z,78.60
2018-05-16T05:41:36.928Z,78.60
2018-05-16T05:44:04.408Z,78.40
2018-05-16T05:46:31.925Z,78.30
2018-05-16T05:48:59.423Z,78.10
2018-05-16T05:51:26.900Z,77.60
2018-05-16T05:53:55.215Z,77.20
2018-05-16T05:56:22.716Z,76.80
2018-05-16T05:58:55.993Z,76.60
2018-05-16T06:01:23.473Z,76.30
2018-05-16T06:03:50.932Z,75.60
2018-05-16T06:06:18.425Z,75.00
2018-05-16T06:08:45.905Z,74.60
2018-05-16T06:11:13.364Z,74.30
2018-05-16T06:13:40.859Z,74.00
2018-05-16T06:16:08.375Z,74.50
2018-05-16T06:18:35.863Z,74.30
2018-05-16T06:21:04.104Z,73.90
2018-05-16T06:23:31.575Z,73.90
2018-05-16T06:25:59.056Z,73.60
2018-05-16T06:28:26.541Z,73.60
2018-05-16T06:30:54.800Z,73.00
2018-05-16T06:33:22.253Z,72.90
2018-05-16T06:35:49.768Z,73.00
2018-05-16T06:38:17.237Z,72.60
2018-05-16T06:40:44.726Z,72.90
2018-05-16T06:43:12.230Z,72.50
2018-05-16T06:45:40.477Z,71.60
2018-05-16T06:48:07.976Z,71.60
2018-05-16T06:50:36.200Z,70.40
2018-05-16T06:53:03.730Z,70.30
2018-05-16T06:55:31.176Z,69.80
2018-05-16T06:57:58.661Z,69.60
2018-05-16T07:00:26.120Z,69.60
2018-05-16T07:02:53.588Z,69.00
2018-05-16T07:05:21.070Z,68.80
2018-05-16T07:07:48.569Z,68.30
2018-05-16T07:10:16.024Z,68.10
2018-05-16T07:12:43.501Z,67.50
2018-05-16T07:15:11.766Z,66.10
2018-05-16T07:17:39.412Z,66.00
2018-05-16T07:20:06.892Z,65.30
2018-05-16T07:22:35.161Z,65.10
2018-05-16T07:25:02.633Z,65.10
2018-05-16T07:27:30.863Z,65.30
2018-05-16T07:29:58.452Z,65.20
2018-05-16T07:32:26.554Z,64.30
2018-05-16T07:34:53.957Z,63.90
2018-05-16T07:37:21.416Z,63.40
2018-05-16T07:39:48.910Z,62.90
2018-05-16T07:42:17.152Z,63.90
2018-05-16T07:44:44.628Z,63.90
2018-05-16T07:47:12.125Z,63.10
2018-05-16T07:49:40.336Z,62.40
2018-05-16T07:52:07.805Z,62.40
2018-05-16T07:54:35.293Z,61.80
2018-05-16T07:57:02.759Z,61.00
2018-05-16T07:59:30.203Z,59.80
2018-05-16T08:01:57.700Z,59.00
2018-05-16T08:04:25.924Z,58.60
2018-05-16T08:06:53.397Z,58.50
2018-05-16T08:09:20.864Z,58.10
2018-05-16T08:11:48.398Z,57.50
2018-05-16T08:14:15.884Z,57.80
2018-05-16T08:16:43.932Z,56.60
2018-05-16T08:19:12.193Z,57.40
2018-05-16T08:21:39.672Z,56.80
2018-05-16T08:24:07.124Z,56.80
2018-05-16T08:26:34.613Z,54.90
2018-05-16T08:29:02.945Z,54.10
2018-05-16T08:31:30.437Z,54.10
2018-05-16T08:33:57.889Z,54.50
2018-05-16T08:36:25.367Z,54.70
2018-05-16T08:38:53.579Z,54.40
2018-05-16T08:41:21.079Z,54.40
2018-05-16T08:43:48.544Z,53.70
2018-05-16T08:46:16.028Z,53.80
2018-05-16T08:48:44.233Z,53.30
2018-05-16T08:51:11.712Z,53.20
2018-05-16T08:53:39.187Z,52.70
2018-05-16T08:56:07.456Z,50.70
2018-05-16T08:58:35.082Z,50.60
2018-05-16T09:01:02.563Z,49.70
2018-05-16T09:03:30.037Z,48.40
2018-05-16T09:05:57.523Z,47.20
2018-05-16T09:08:25.743Z,46.90
2018-05-16T09:10:53.236Z,46.80
2018-05-16T09:13:20.705Z,46.10
2018-05-16T09:15:48.963Z,45.20
2018-05-16T09:18:16.422Z,45.10
2018-05-16T09:20:43.890Z,44.70
2018-05-16T09:23:11.372Z,44.40
2018-05-16T09:25:38.864Z,43.50
2018-05-16T09:28:06.324Z,42.80
2018-05-16T09:30:33.820Z,42.40
2018-05-16T09:33:01.323Z,42.30
2018-05-16T09:35:28.784Z,42.20
2018-05-16T09:37:56.298Z,41.00
2018-05-16T09:40:23.782Z,40.70
2018-05-16T09:42:51.364Z,41.40
2018-05-16T09:45:18.824Z,41.60
2018-05-16T09:47:46.280Z,41.90
2018-05-16T09:50:13.761Z,42.30
2018-05-16T09:52:41.228Z,41.90
2018-05-16T09:55:08.746Z,41.30
2018-05-16T09:57:36.225Z,41.20
2018-05-16T10:00:03.765Z,40.80
2018-05-16T10:02:31.249Z,40.90
2018-05-16T10:04:58.707Z,40.70
2018-05-16T10:07:26.193Z,40.80
2018-05-16T10:09:53.651Z,40.80
2018-05-16T10:12:21.119Z,41.10
2018-05-16T10:14:49.345Z,41.60
2018-05-16T10:17:16.815Z,40.90
2018-05-16T10:19:44.268Z,40.60
2018-05-16T10:22:11.756Z,40.20
2018-05-16T10:24:39.216Z,40.00
2018-05-16T10:27:06.672Z,39.80
2018-05-16T10:29:34.152Z,39.70
2018-05-16T10:32:01.634Z,40.70
2018-05-16T10:34:29.579Z,40.90
2018-05-16T10:36:57.816Z,39.70
2018-05-16T10:39:25.311Z,39.60
2018-05-16T10:41:53.525Z,38.40
2018-05-16T10:44:21.013Z,38.40
2018-05-16T10:46:48.468Z,37.60
2018-05-16T10:49:15.945Z,37.30
2018-05-16T10:51:43.400Z,37.60
2018-05-16T10:54:10.877Z,36.80
2018-05-16T10:56:39.100Z,36.10
2018-05-16T10:59:06.588Z,36.00
2018-05-16T11:01:34.073Z,35.90
2018-05-16T11:04:01.521Z,35.40
2018-05-16T11:06:29.133Z,35.20
2018-05-16T11:08:57.419Z,34.50
2018-05-16T11:11:26.607Z,34.40
2018-05-16T11:13:54.069Z,33.90
2018-05-16T11:16:21.552Z,33.60
2018-05-16T11:18:49.042Z,33.30
2018-05-16T11:21:16.518Z,32.50
2018-05-16T11:23:43.997Z,32.10
2018-05-16T11:26:11.480Z,31.60
2018-05-16T11:28:38.947Z,31.60
2018-05-16T11:31:06.417Z,31.50
2018-05-16T11:33:33.906Z,31.60
2018-05-16T11:36:02.160Z,30.50
2018-05-16T11:38:29.712Z,30.40
2018-05-16T11:40:57.236Z,30.60
2018-05-16T11:43:24.883Z,30.60
2018-05-16T11:45:52.360Z,29.80
2018-05-16T11:48:19.816Z,29.50
2018-05-16T11:50:47.311Z,29.10
2018-05-16T11:53:14.801Z,28.60
2018-05-16T11:55:42.404Z,28.50
2018-05-16T11:58:09.878Z,28.30
2018-05-16T12:00:37.338Z,28.30
2018-05-16T12:03:04.827Z,28.30
2018-05-16T12:05:33.074Z,27.00
2018-05-16T12:08:00.524Z,26.90
2018-05-16T12:10:28.024Z,27.00
2018-05-16T12:12:56.282Z,27.10
2018-05-16T12:15:23.769Z,27.10
2018-05-16T12:17:51.260Z,27.20
2018-05-16T12:20:18.730Z,26.60
2018-05-16T12:22:46.208Z,26.30
2018-05-16T12:25:13.676Z,25.80
2018-05-16T12:27:41.158Z,25.60
2018-05-16T12:30:08.641Z,24.60
2018-05-16T12:32:36.139Z,24.10
2018-05-16T12:35:03.589Z,24.00
2018-05-16T12:37:32.296Z,23.80
2018-05-16T12:39:59.753Z,24.30
2018-05-16T12:42:27.224Z,24.30
2018-05-16T12:44:54.862Z,24.40
2018-05-16T12:47:22.337Z,24.50
2018-05-16T12:49:49.808Z,24.50
2018-05-16T12:52:17.268Z,24.50
2018-05-16T12:54:45.508Z,24.50
2018-05-16T12:57:13.044Z,24.50
2018-05-16T12:59:40.514Z,24.50
2018-05-16T13:02:07.968Z,24.80
2018-05-16T13:04:35.472Z,24.80
2018-05-16T13:07:03.022Z,24.70
2018-05-16T13:09:30.488Z,24.50
2018-05-16T13:11:58.780Z,24.00
2018-05-16T13:14:26.232Z,24.00
2018-05-16T13:16:54.482Z,23.80
2018-05-16T13:19:21.928Z,23.70
2018-05-16T13:21:49.466Z,23.90
2018-05-16T13:24:16.924Z,23.80
2018-05-16T13:26:44.398Z,23.30
2018-05-16T13:29:11.883Z,23.90
2018-05-16T13:31:39.477Z,24.20
2018-05-16T13:34:06.942Z,24.00
2018-05-16T13:36:34.406Z,23.80
2018-05-16T13:39:01.880Z,23.50
2018-05-16T13:41:29.329Z,23.40
2018-05-16T13:43:56.840Z,24.00
2018-05-16T13:46:25.110Z,24.20
2018-05-16T13:48:52.576Z,24.20
2018-05-16T13:51:20.796Z,24.10
2018-05-16T13:53:48.309Z,24.00
2018-05-16T13:56:16.533Z,24.40
2018-05-16T13:58:44.028Z,24.40
2018-05-16T14:01:11.505Z,24.00
2018-05-16T14:03:38.964Z,23.70
2018-05-16T14:06:06.451Z,23.70
2018-05-16T14:08:33.910Z,23.10
2018-05-16T14:11:01.414Z,23.30
2018-05-16T14:13:28.880Z,23.60
2018-05-16T14:15:56.380Z,23.80
2018-05-16T14:18:23.844Z,24.00
2018-05-16T14:20:51.321Z,24.30
2018-05-16T14:23:18.775Z,24.50
2018-05-16T14:25:47.032Z,24.80
2018-05-16T14:28:14.500Z,24.80
2018-05-16T14:30:41.949Z,25.10
2018-05-16T14:33:09.427Z,25.10
2018-05-16T14:35:36.885Z,25.00
2018-05-16T14:38:07.341Z,25.20
2018-05-16T14:40:34.805Z,25.10
2018-05-16T14:43:03.120Z,26.00
2018-05-16T14:45:31.382Z,26.00
2018-05-16T14:47:58.857Z,27.10
2018-05-16T14:50:26.336Z,27.60
2018-05-16T14:52:56.723Z,28.20
2018-05-16T14:58:15.225Z,30.40
2018-05-16T15:00:42.732Z,30.20
2018-05-16T15:03:11.511Z,31.20
2018-05-16T15:05:39.809Z,32.30
2018-05-16T15:08:07.293Z,32.10
2018-05-16T15:10:34.768Z,32.80
2018-05-16T15:13:02.258Z,33.30
2018-05-16T15:15:29.720Z,33.40
2018-05-16T15:17:57.976Z,33.80
2018-05-16T15:20:25.507Z,33.70
2018-05-16T15:22:52.963Z,34.00
2018-05-16T15:25:20.465Z,34.10
2018-05-16T15:27:48.684Z,34.20
2018-05-16T15:30:16.156Z,34.20
2018-05-16T15:32:43.637Z,34.90
2018-05-16T15:35:11.117Z,35.20
2018-05-16T15:37:38.597Z,35.50
2018-05-16T15:40:06.057Z,35.80
2018-05-16T15:42:33.547Z,36.10
2018-05-16T15:45:01.008Z,36.20
2018-05-16T15:47:28.472Z,37.20
2018-05-16T15:49:55.945Z,36.90
2018-05-16T15:52:23.472Z,37.00
2018-05-16T15:54:51.020Z,37.30
2018-05-16T15:57:18.477Z,37.90
2018-05-16T15:59:46.014Z,38.30
2018-05-16T16:02:13.429Z,38.60
2018-05-16T16:04:40.889Z,39.00
2018-05-16T16:07:08.387Z,39.00
2018-05-16T16:09:35.865Z,39.10
2018-05-16T16:12:03.364Z,39.10
2018-05-16T16:14:30.816Z,39.20
2018-05-16T16:16:59.046Z,39.20
2018-05-16T16:19:26.525Z,39.10
2018-05-16T16:21:53.982Z,39.20
2018-05-16T16:24:21.490Z,39.40
2018-05-16T16:26:49.720Z,40.10
2018-05-16T16:29:17.201Z,40.10
2018-05-16T16:31:44.684Z,40.10
2018-05-16T16:34:12.313Z,40.00
2018-05-16T16:36:39.862Z,40.10
2018-05-16T16:39:07.353Z,40.00
2018-05-16T16:41:34.847Z,40.20
2018-05-16T16:44:02.305Z,40.60
2018-05-16T16:46:29.792Z,40.90
2018-05-16T16:48:57.256Z,40.90
2018-05-16T16:51:24.793Z,41.30
2018-05-16T16:53:52.248Z,41.40
2018-05-16T16:56:19.768Z,41.60
2018-05-16T16:58:47.996Z,41.70
2018-05-16T17:01:15.534Z,41.60
2018-05-16T17:03:42.990Z,41.30
2018-05-16T17:06:10.457Z,41.40
2018-05-16T17:08:37.938Z,41.50
2018-05-16T17:11:05.422Z,41.30
2018-05-16T17:13:32.904Z,41.10
2018-05-16T17:16:01.117Z,40.00
2018-05-16T17:18:29.341Z,40.00
2018-05-16T17:20:57.639Z,40.20
2018-05-16T17:23:25.063Z,40.10
2018-05-16T17:25:52.513Z,40.10
2018-05-16T17:28:19.991Z,40.10
2018-05-16T17:30:48.228Z,40.50
2018-05-16T17:33:15.774Z,40.50
2018-05-16T17:35:43.181Z,40.80
2018-05-16T17:38:11.425Z,41.20
2018-05-16T17:40:38.916Z,41.20
2018-05-16T17:43:06.383Z,41.20
2018-05-16T17:45:33.853Z,41.20
2018-05-16T17:48:01.330Z,41.80
2018-05-16T17:50:28.807Z,42.20
2018-05-16T17:52:57.031Z,43.00
2018-05-16T17:55:24.500Z,42.90
2018-05-16T17:57:51.975Z,42.30
2018-05-16T18:00:19.456Z,42.70
2018-05-16T18:02:46.909Z,42.70
2018-05-16T18:05:15.152Z,42.80
2018-05-16T18:07:43.527Z,42.80
2018-05-16T18:10:11.015Z,43.50
2018-05-16T18:12:39.252Z,43.40
2018-05-16T18:15:19.304Z,43.40
2018-05-16T18:17:46.764Z,45.20
2018-05-16T18:20:14.257Z,45.90
2018-05-16T18:22:42.539Z,47.90
2018-05-16T18:25:10.054Z,48.10
2018-05-16T18:27:37.524Z,48.40
2018-05-16T18:30:04.997Z,49.80
2018-05-16T18:32:32.644Z,51.00
2018-05-16T18:35:00.972Z,52.50
2018-05-16T18:37:28.454Z,52.50
2018-05-16T18:39:55.930Z,54.10
2018-05-16T18:42:23.425Z,54.00
2018-05-16T18:44:50.906Z,55.20
2018-05-16T18:47:18.405Z,56.30
2018-05-16T18:49:45.869Z,56.90
2018-05-16T18:52:13.341Z,57.50
2018-05-16T18:54:40.824Z,58.10
2018-05-16T18:57:09.057Z,59.50
2018-05-16T18:59:36.535Z,59.40
2018-05-16T19:02:04.005Z,59.60
2018-05-16T19:04:31.504Z,60.00
2018-05-16T19:06:58.973Z,60.00
2018-05-16T19:09:26.481Z,60.70
2018-05-16T19:11:54.717Z,60.70
2018-05-16T19:14:22.204Z,60.70
2018-05-16T19:16:50.446Z,60.60
2018-05-16T19:19:17.927Z,60.50
2018-05-16T19:21:45.372Z,60.50
2018-05-16T19:24:12.833Z,60.80
2018-05-16T19:26:40.315Z,61.10
2018-05-16T19:29:08.557Z,61.40
2018-05-16T19:31:36.042Z,61.40
2018-05-16T19:34:04.277Z,62.50
2018-05-16T19:36:31.772Z,62.50
2018-05-16T19:38:59.238Z,62.40
2018-05-16T19:41:26.699Z,62.80
2018-05-16T19:43:54.213Z,62.30
2018-05-16T19:46:21.695Z,62.10
2018-05-16T19:48:49.161Z,61.70
2018-05-16T19:51:16.632Z,61.30
2018-05-16T19:53:44.089Z,61.40
2018-05-16T19:56:11.557Z,61.40
2018-05-16T19:58:39.144Z,61.30
2018-05-16T20:01:06.553Z,61.00
2018-05-16T20:03:34.012Z,61.10
2018-05-16T20:06:01.499Z,61.50
2018-05-16T20:08:28.947Z,61.40
2018-05-16T20:10:56.453Z,61.40
2018-05-16T20:13:23.904Z,61.40
2018-05-16T20:15:51.410Z,61.50
2018-05-16T20:18:19.628Z,61.80
2018-05-16T20:20:47.092Z,61.80
2018-05-16T20:23:14.647Z,62.10
2018-05-16T20:25:43.625Z,62.20
2018-05-16T20:28:11.142Z,62.30
2018-05-16T20:30:39.396Z,62.40
2018-05-16T20:33:06.880Z,62.40
2018-05-16T20:35:34.337Z,62.50
2018-05-16T20:38:01.820Z,62.60
2018-05-16T20:40:29.304Z,62.70
2018-05-16T20:42:56.767Z,62.90
2018-05-16T20:45:24.256Z,63.10
2018-05-16T20:47:51.712Z,63.50
2018-05-16T20:50:19.192Z,63.50
2018-05-16T20:52:46.662Z,63.80
2018-05-16T20:55:14.918Z,64.00
2018-05-16T20:57:42.381Z,64.00
2018-05-16T21:00:10.736Z,64.20
2018-05-16T21:02:38.224Z,65.00
2018-05-16T21:05:05.748Z,64.10
2018-05-16T21:07:33.226Z,64.20
2018-05-16T21:10:00.727Z,64.30
2018-05-16T21:12:28.209Z,64.30
2018-05-16T21:14:55.659Z,64.50
2018-05-16T21:17:23.148Z,64.50
2018-05-16T21:19:50.624Z,64.70
2018-05-16T21:22:18.081Z,64.90
2018-05-16T21:24:45.561Z,65.10
2018-05-16T21:27:13.070Z,65.20
2018-05-16T21:29:40.551Z,65.40
2018-05-16T21:32:08.858Z,65.30
2018-05-16T21:34:36.404Z,65.30
2018-05-16T21:37:03.908Z,65.80
2018-05-16T21:39:31.365Z,65.80
2018-05-16T21:41:58.914Z,66.10
2018-05-16T21:44:26.394Z,66.00
2018-05-16T21:46:53.853Z,65.90
2018-05-16T21:49:21.344Z,66.20
2018-05-16T21:51:49.552Z,66.70
2018-05-16T21:54:17.023Z,66.70
2018-05-16T21:56:44.531Z,66.60
2018-05-16T21:59:11.973Z,66.70
2018-05-16T22:01:39.420Z,66.80
2018-05-16T22:04:06.918Z,66.90
2018-05-16T22:06:34.381Z,67.30
2018-05-16T22:09:01.870Z,67.40
2018-05-16T22:11:29.331Z,67.40
2018-05-16T22:13:56.813Z,67.50
2018-05-16T22:16:24.296Z,67.70
2018-05-16T22:18:51.754Z,68.00
2018-05-16T22:21:20.000Z,68.30
2018-05-16T22:23:47.461Z,68.30
2018-05-16T22:26:14.936Z,68.40
2018-05-16T22:28:42.410Z,68.60
2018-05-16T22:31:15.544Z,68.90
2018-05-16T22:33:48.751Z,69.00
2018-05-16T22:36:21.976Z,68.90
2018-05-16T22:38:55.885Z,69.10
2018-05-16T22:41:29.050Z,69.10
2018-05-16T22:46:59.860Z,70.10
2018-05-16T22:49:27.321Z,70.00
2018-05-16T22:51:54.814Z,70.00
2018-05-16T22:54:22.284Z,70.10
2018-05-16T22:56:49.765Z,70.30
2018-05-16T22:59:17.329Z,70.30
2018-05-16T23:01:45.348Z,70.30
2018-05-16T23:04:12.824Z,70.50
2018-05-16T23:06:41.074Z,71.10
2018-05-16T23:09:08.552Z,71.00
2018-05-16T23:11:36.032Z,71.10
2018-05-16T23:14:03.514Z,71.20
2018-05-16T23:16:30.967Z,71.20
2018-05-16T23:18:58.436Z,71.50
2018-05-16T23:21:25.901Z,71.70
2018-05-16T23:23:53.389Z,71.90
2018-05-16T23:26:20.844Z,72.20
2018-05-16T23:28:48.321Z,72.10
2018-05-16T23:31:16.577Z,72.40
2018-05-16T23:33:44.032Z,72.30
2018-05-16T23:36:11.499Z,72.40
2018-05-16T23:38:39.048Z,72.40
2018-05-16T23:41:06.533Z,72.50
2018-05-16T23:43:34.758Z,72.90
2018-05-16T23:46:02.243Z,72.90
2018-05-16T23:48:29.729Z,73.10
2018-05-16T23:50:57.969Z,73.20
2018-05-16T23:53:25.443Z,73.10
2018-05-16T23:55:52.913Z,73.30
2018-05-16T23:58:20.405Z,73.40
